sensor_id;sensor_type;location;lat;lon;timestamp;P1;durP1;ratioP1;P2;durP2;ratioP2
76157;SDS011;64907;51.574;6.502;2022-12-20T00:01:06;7.80;;;3.37;;
76157;SDS011;64907;51.574;6.502;2022-12-20T00:03:31;3.90;;;3.38;;
76157;SDS011;64907;51.574;6.502;2022-12-20T00:05:56;3.53;;;3.33;;
76157;SDS011;64907;51.574;6.502;2022-12-20T00:08:22;6.95;;;3.47;;
76157;SDS011;64907;51.574;6.502;2022-12-20T00:10:47;6.03;;;3.10;;
76157;SDS011;64907;51.574;6.502;2022-12-20T00:13:13;5.63;;;3.27;;
76157;SDS011;64907;51.574;6.502;2022-12-20T00:15:38;3.45;;;3.15;;
76157;SDS011;64907;51.574;6.502;2022-12-20T00:18:03;3.40;;;2.90;;
76157;SDS011;64907;51.574;6.502;2022-12-20T00:20:28;3.47;;;3.17;;
76157;SDS011;64907;51.574;6.502;2022-12-20T00:22:54;4.33;;;2.73;;
76157;SDS011;64907;51.574;6.502;2022-12-20T00:25:19;3.25;;;2.97;;
76157;SDS011;64907;51.574;6.502;2022-12-20T00:27:44;3.08;;;2.88;;
76157;SDS011;64907;51.574;6.502;2022-12-20T00:30:10;3.38;;;3.10;;
76157;SDS011;64907;51.574;6.502;2022-12-20T00:32:35;5.28;;;2.85;;
76157;SDS011;64907;51.574;6.502;2022-12-20T00:35:00;2.73;;;2.60;;
76157;SDS011;64907;51.574;6.502;2022-12-20T00:37:25;3.00;;;2.80;;
76157;SDS011;64907;51.574;6.502;2022-12-20T00:39:51;2.63;;;2.43;;
76157;SDS011;64907;51.574;6.502;2022-12-20T00:42:16;2.93;;;2.60;;
76157;SDS011;64907;51.574;6.502;2022-12-20T00:44:41;2.90;;;2.50;;
76157;SDS011;64907;51.574;6.502;2022-12-20T00:47:06;3.13;;;2.93;;
76157;SDS011;64907;51.574;6.502;2022-12-20T00:49:31;2.70;;;2.50;;
76157;SDS011;64907;51.574;6.502;2022-12-20T00:51:56;2.37;;;2.17;;
76157;SDS011;64907;51.574;6.502;2022-12-20T00:54:22;3.17;;;2.40;;
76157;SDS011;64907;51.574;6.502;2022-12-20T00:56:47;3.97;;;2.43;;
76157;SDS011;64907;51.574;6.502;2022-12-20T00:59:12;4.53;;;2.83;;
76157;SDS011;64907;51.574;6.502;2022-12-20T01:01:37;4.13;;;2.80;;
76157;SDS011;64907;51.574;6.502;2022-12-20T01:04:02;4.23;;;2.50;;
76157;SDS011;64907;51.574;6.502;2022-12-20T01:06:28;2.58;;;2.38;;
76157;SDS011;64907;51.574;6.502;2022-12-20T01:08:54;2.25;;;2.15;;
76157;SDS011;64907;51.574;6.502;2022-12-20T01:11:20;2.85;;;2.00;;
76157;SDS011;64907;51.574;6.502;2022-12-20T01:13:46;2.10;;;1.80;;
76157;SDS011;64907;51.574;6.502;2022-12-20T01:16:17;2.60;;;2.40;;
76157;SDS011;64907;51.574;6.502;2022-12-20T01:18:42;2.72;;;2.10;;
76157;SDS011;64907;51.574;6.502;2022-12-20T01:21:09;2.20;;;2.10;;
76157;SDS011;64907;51.574;6.502;2022-12-20T01:23:34;2.38;;;2.17;;
76157;SDS011;64907;51.574;6.502;2022-12-20T01:26:00;2.38;;;2.15;;
76157;SDS011;64907;51.574;6.502;2022-12-20T01:28:25;2.30;;;2.05;;
76157;SDS011;64907;51.574;6.502;2022-12-20T01:30:51;2.20;;;2.00;;
76157;SDS011;64907;51.574;6.502;2022-12-20T01:33:17;2.00;;;1.90;;
76157;SDS011;64907;51.574;6.502;2022-12-20T01:35:53;2.20;;;2.10;;
76157;SDS011;64907;51.574;6.502;2022-12-20T01:38:18;1.90;;;1.80;;
76157;SDS011;64907;51.574;6.502;2022-12-20T01:40:43;2.20;;;2.00;;
76157;SDS011;64907;51.574;6.502;2022-12-20T01:43:10;2.20;;;2.05;;
76157;SDS011;64907;51.574;6.502;2022-12-20T01:45:42;4.47;;;1.90;;
76157;SDS011;64907;51.574;6.502;2022-12-20T01:48:07;1.80;;;1.70;;
76157;SDS011;64907;51.574;6.502;2022-12-20T01:50:33;1.80;;;1.70;;
76157;SDS011;64907;51.574;6.502;2022-12-20T01:52:59;2.13;;;2.03;;
76157;SDS011;64907;51.574;6.502;2022-12-20T01:55:26;2.22;;;2.08;;
76157;SDS011;64907;51.574;6.502;2022-12-20T01:58:11;1.90;;;1.73;;
76157;SDS011;64907;51.574;6.502;2022-12-20T02:00:37;2.28;;;2.10;;
76157;SDS011;64907;51.574;6.502;2022-12-20T02:03:04;3.13;;;1.77;;
76157;SDS011;64907;51.574;6.502;2022-12-20T02:05:33;1.90;;;1.75;;
76157;SDS011;64907;51.574;6.502;2022-12-20T02:07:58;2.58;;;2.38;;
76157;SDS011;64907;51.574;6.502;2022-12-20T02:10:25;2.00;;;1.90;;
76157;SDS011;64907;51.574;6.502;2022-12-20T02:12:56;2.10;;;1.80;;
76157;SDS011;64907;51.574;6.502;2022-12-20T02:20:37;1.70;;;1.60;;
76157;SDS011;64907;51.574;6.502;2022-12-20T02:26:16;1.95;;;1.77;;
76157;SDS011;64907;51.574;6.502;2022-12-20T02:29:01;3.13;;;2.00;;
76157;SDS011;64907;51.574;6.502;2022-12-20T02:31:42;1.80;;;1.70;;
76157;SDS011;64907;51.574;6.502;2022-12-20T02:34:09;2.20;;;2.10;;
76157;SDS011;64907;51.574;6.502;2022-12-20T02:36:35;2.45;;;2.17;;
76157;SDS011;64907;51.574;6.502;2022-12-20T02:39:00;1.80;;;1.70;;
76157;SDS011;64907;51.574;6.502;2022-12-20T02:41:26;2.60;;;1.98;;
76157;SDS011;64907;51.574;6.502;2022-12-20T02:43:58;2.00;;;1.90;;
76157;SDS011;64907;51.574;6.502;2022-12-20T02:46:43;2.75;;;2.25;;
76157;SDS011;64907;51.574;6.502;2022-12-20T02:49:11;3.13;;;2.25;;
76157;SDS011;64907;51.574;6.502;2022-12-20T02:51:38;2.75;;;2.20;;
76157;SDS011;64907;51.574;6.502;2022-12-20T02:54:05;2.33;;;2.13;;
76157;SDS011;64907;51.574;6.502;2022-12-20T02:56:34;2.30;;;2.20;;
76157;SDS011;64907;51.574;6.502;2022-12-20T02:59:01;2.05;;;1.95;;
76157;SDS011;64907;51.574;6.502;2022-12-20T03:01:30;2.33;;;2.17;;
76157;SDS011;64907;51.574;6.502;2022-12-20T03:03:57;2.30;;;2.10;;
76157;SDS011;64907;51.574;6.502;2022-12-20T03:06:23;5.55;;;2.33;;
76157;SDS011;64907;51.574;6.502;2022-12-20T03:08:48;2.47;;;2.28;;
76157;SDS011;64907;51.574;6.502;2022-12-20T03:11:13;2.20;;;2.10;;
76157;SDS011;64907;51.574;6.502;2022-12-20T03:13:38;3.65;;;2.35;;
76157;SDS011;64907;51.574;6.502;2022-12-20T03:16:04;2.50;;;2.30;;
76157;SDS011;64907;51.574;6.502;2022-12-20T03:18:29;2.65;;;2.55;;
76157;SDS011;64907;51.574;6.502;2022-12-20T03:20:54;3.03;;;2.17;;
76157;SDS011;64907;51.574;6.502;2022-12-20T03:23:20;2.13;;;2.00;;
76157;SDS011;64907;51.574;6.502;2022-12-20T03:25:46;2.28;;;2.10;;
76157;SDS011;64907;51.574;6.502;2022-12-20T03:28:11;3.50;;;2.20;;
76157;SDS011;64907;51.574;6.502;2022-12-20T03:30:36;2.83;;;2.10;;
76157;SDS011;64907;51.574;6.502;2022-12-20T03:33:01;3.70;;;2.50;;
76157;SDS011;64907;51.574;6.502;2022-12-20T03:35:26;2.95;;;2.67;;
76157;SDS011;64907;51.574;6.502;2022-12-20T03:37:51;4.85;;;2.70;;
76157;SDS011;64907;51.574;6.502;2022-12-20T03:40:17;3.40;;;2.20;;
76157;SDS011;64907;51.574;6.502;2022-12-20T03:42:42;3.13;;;2.90;;
76157;SDS011;64907;51.574;6.502;2022-12-20T03:45:07;3.17;;;2.80;;
76157;SDS011;64907;51.574;6.502;2022-12-20T03:47:33;5.43;;;2.65;;
76157;SDS011;64907;51.574;6.502;2022-12-20T03:49:58;6.83;;;3.00;;
76157;SDS011;64907;51.574;6.502;2022-12-20T03:52:23;4.82;;;2.58;;
76157;SDS011;64907;51.574;6.502;2022-12-20T03:54:48;3.08;;;2.50;;
76157;SDS011;64907;51.574;6.502;2022-12-20T03:57:13;4.37;;;2.63;;
76157;SDS011;64907;51.574;6.502;2022-12-20T03:59:39;2.70;;;2.50;;
76157;SDS011;64907;51.574;6.502;2022-12-20T04:02:04;3.17;;;2.93;;
76157;SDS011;64907;51.574;6.502;2022-12-20T04:04:29;2.83;;;2.55;;
76157;SDS011;64907;51.574;6.502;2022-12-20T04:06:54;2.65;;;2.40;;
76157;SDS011;64907;51.574;6.502;2022-12-20T04:09:20;3.75;;;2.50;;
76157;SDS011;64907;51.574;6.502;2022-12-20T04:11:45;2.50;;;2.40;;
76157;SDS011;64907;51.574;6.502;2022-12-20T04:14:10;3.25;;;2.67;;
76157;SDS011;64907;51.574;6.502;2022-12-20T04:16:35;3.30;;;2.70;;
76157;SDS011;64907;51.574;6.502;2022-12-20T04:19:01;3.25;;;2.95;;
76157;SDS011;64907;51.574;6.502;2022-12-20T04:21:27;3.03;;;2.50;;
76157;SDS011;64907;51.574;6.502;2022-12-20T04:23:52;3.50;;;2.95;;
76157;SDS011;64907;51.574;6.502;2022-12-20T04:26:18;2.83;;;2.63;;
76157;SDS011;64907;51.574;6.502;2022-12-20T04:28:44;3.20;;;3.00;;
76157;SDS011;64907;51.574;6.502;2022-12-20T04:31:09;2.83;;;2.70;;
76157;SDS011;64907;51.574;6.502;2022-12-20T04:33:34;4.82;;;3.17;;
76157;SDS011;64907;51.574;6.502;2022-12-20T04:35:59;3.85;;;3.10;;
76157;SDS011;64907;51.574;6.502;2022-12-20T04:40:53;4.25;;;3.22;;
76157;SDS011;64907;51.574;6.502;2022-12-20T04:43:19;2.92;;;2.60;;
76157;SDS011;64907;51.574;6.502;2022-12-20T04:45:46;2.78;;;2.58;;
76157;SDS011;64907;51.574;6.502;2022-12-20T04:48:11;4.47;;;2.80;;
76157;SDS011;64907;51.574;6.502;2022-12-20T04:50:38;3.10;;;2.90;;
76157;SDS011;64907;51.574;6.502;2022-12-20T04:53:03;3.58;;;3.10;;
76157;SDS011;64907;51.574;6.502;2022-12-20T04:55:47;3.03;;;2.80;;
76157;SDS011;64907;51.574;6.502;2022-12-20T04:58:12;3.85;;;2.90;;
76157;SDS011;64907;51.574;6.502;2022-12-20T05:00:37;3.65;;;3.35;;
76157;SDS011;64907;51.574;6.502;2022-12-20T05:03:03;4.75;;;3.63;;
76157;SDS011;64907;51.574;6.502;2022-12-20T05:05:28;3.47;;;3.17;;
76157;SDS011;64907;51.574;6.502;2022-12-20T05:07:53;4.77;;;3.80;;
76157;SDS011;64907;51.574;6.502;2022-12-20T05:10:19;3.50;;;3.30;;
76157;SDS011;64907;51.574;6.502;2022-12-20T05:12:44;4.15;;;3.67;;
76157;SDS011;64907;51.574;6.502;2022-12-20T05:15:10;6.57;;;3.77;;
76157;SDS011;64907;51.574;6.502;2022-12-20T05:17:38;3.67;;;3.38;;
76157;SDS011;64907;51.574;6.502;2022-12-20T05:20:04;5.72;;;3.75;;
76157;SDS011;64907;51.574;6.502;2022-12-20T05:22:29;3.78;;;3.47;;
76157;SDS011;64907;51.574;6.502;2022-12-20T05:25:13;6.30;;;4.78;;
76157;SDS011;64907;51.574;6.502;2022-12-20T05:27:57;6.00;;;4.05;;
76157;SDS011;64907;51.574;6.502;2022-12-20T05:30:23;4.63;;;4.00;;
76157;SDS011;64907;51.574;6.502;2022-12-20T05:32:48;6.72;;;3.88;;
76157;SDS011;64907;51.574;6.502;2022-12-20T05:35:13;4.50;;;3.90;;
76157;SDS011;64907;51.574;6.502;2022-12-20T05:37:39;6.35;;;3.83;;
76157;SDS011;64907;51.574;6.502;2022-12-20T05:40:04;5.13;;;4.33;;
76157;SDS011;64907;51.574;6.502;2022-12-20T05:42:31;4.90;;;4.00;;
76157;SDS011;64907;51.574;6.502;2022-12-20T05:44:56;4.07;;;3.77;;
76157;SDS011;64907;51.574;6.502;2022-12-20T05:47:21;4.53;;;3.90;;
76157;SDS011;64907;51.574;6.502;2022-12-20T05:49:47;8.23;;;4.57;;
76157;SDS011;64907;51.574;6.502;2022-12-20T05:52:12;7.07;;;3.83;;
76157;SDS011;64907;51.574;6.502;2022-12-20T05:54:37;4.88;;;4.38;;
76157;SDS011;64907;51.574;6.502;2022-12-20T05:57:02;6.05;;;4.40;;
76157;SDS011;64907;51.574;6.502;2022-12-20T05:59:28;5.22;;;4.68;;
76157;SDS011;64907;51.574;6.502;2022-12-20T06:01:53;7.10;;;5.53;;
76157;SDS011;64907;51.574;6.502;2022-12-20T06:04:18;6.05;;;5.45;;
76157;SDS011;64907;51.574;6.502;2022-12-20T06:06:44;7.72;;;6.30;;
76157;SDS011;64907;51.574;6.502;2022-12-20T06:09:09;6.47;;;5.73;;
76157;SDS011;64907;51.574;6.502;2022-12-20T06:11:34;7.93;;;6.20;;
76157;SDS011;64907;51.574;6.502;2022-12-20T06:13:59;8.33;;;5.57;;
76157;SDS011;64907;51.574;6.502;2022-12-20T06:16:25;9.40;;;5.70;;
76157;SDS011;64907;51.574;6.502;2022-12-20T06:18:51;5.70;;;5.30;;
76157;SDS011;64907;51.574;6.502;2022-12-20T06:21:16;10.57;;;5.67;;
76157;SDS011;64907;51.574;6.502;2022-12-20T06:23:41;5.85;;;5.22;;
76157;SDS011;64907;51.574;6.502;2022-12-20T06:26:07;6.00;;;5.47;;
76157;SDS011;64907;51.574;6.502;2022-12-20T06:28:33;8.20;;;5.47;;
76157;SDS011;64907;51.574;6.502;2022-12-20T06:30:59;8.98;;;5.22;;
76157;SDS011;64907;51.574;6.502;2022-12-20T06:33:24;5.13;;;4.63;;
76157;SDS011;64907;51.574;6.502;2022-12-20T06:36:05;7.78;;;6.13;;
76157;SDS011;64907;51.574;6.502;2022-12-20T06:38:33;7.30;;;5.22;;
76157;SDS011;64907;51.574;6.502;2022-12-20T06:40:58;5.88;;;5.28;;
76157;SDS011;64907;51.574;6.502;2022-12-20T06:43:24;5.25;;;4.95;;
76157;SDS011;64907;51.574;6.502;2022-12-20T06:45:49;7.63;;;4.82;;
76157;SDS011;64907;51.574;6.502;2022-12-20T06:48:14;10.63;;;5.97;;
76157;SDS011;64907;51.574;6.502;2022-12-20T06:53:08;6.72;;;5.45;;
76157;SDS011;64907;51.574;6.502;2022-12-20T06:55:34;6.13;;;5.40;;
76157;SDS011;64907;51.574;6.502;2022-12-20T06:57:59;6.00;;;5.40;;
76157;SDS011;64907;51.574;6.502;2022-12-20T07:00:24;5.77;;;5.37;;
76157;SDS011;64907;51.574;6.502;2022-12-20T07:02:49;7.13;;;5.23;;
76157;SDS011;64907;51.574;6.502;2022-12-20T07:05:14;6.45;;;5.18;;
76157;SDS011;64907;51.574;6.502;2022-12-20T07:07:40;5.82;;;4.93;;
76157;SDS011;64907;51.574;6.502;2022-12-20T07:10:05;6.25;;;5.30;;
76157;SDS011;64907;51.574;6.502;2022-12-20T07:12:31;7.55;;;5.22;;
76157;SDS011;64907;51.574;6.502;2022-12-20T07:14:57;4.85;;;4.45;;
76157;SDS011;64907;51.574;6.502;2022-12-20T07:17:22;7.27;;;5.00;;
76157;SDS011;64907;51.574;6.502;2022-12-20T07:19:50;8.25;;;4.95;;
76157;SDS011;64907;51.574;6.502;2022-12-20T07:22:16;7.90;;;4.90;;
76157;SDS011;64907;51.574;6.502;2022-12-20T07:24:41;9.73;;;5.53;;
76157;SDS011;64907;51.574;6.502;2022-12-20T07:27:06;6.60;;;4.40;;
76157;SDS011;64907;51.574;6.502;2022-12-20T07:32:05;4.85;;;4.35;;
76157;SDS011;64907;51.574;6.502;2022-12-20T07:34:31;4.83;;;4.03;;
76157;SDS011;64907;51.574;6.502;2022-12-20T07:36:56;5.70;;;5.20;;
76157;SDS011;64907;51.574;6.502;2022-12-20T07:39:21;6.57;;;4.20;;
76157;SDS011;64907;51.574;6.502;2022-12-20T07:41:46;4.83;;;4.40;;
76157;SDS011;64907;51.574;6.502;2022-12-20T07:44:11;5.70;;;4.50;;
76157;SDS011;64907;51.574;6.502;2022-12-20T07:46:39;5.25;;;4.75;;
76157;SDS011;64907;51.574;6.502;2022-12-20T07:49:05;5.25;;;4.78;;
76157;SDS011;64907;51.574;6.502;2022-12-20T07:51:32;4.93;;;4.43;;
76157;SDS011;64907;51.574;6.502;2022-12-20T07:54:18;4.28;;;3.83;;
76157;SDS011;64907;51.574;6.502;2022-12-20T07:56:46;4.78;;;4.38;;
76157;SDS011;64907;51.574;6.502;2022-12-20T07:59:12;6.60;;;4.00;;
76157;SDS011;64907;51.574;6.502;2022-12-20T08:01:47;4.47;;;3.90;;
76157;SDS011;64907;51.574;6.502;2022-12-20T08:04:20;4.05;;;3.67;;
76157;SDS011;64907;51.574;6.502;2022-12-20T08:06:47;4.38;;;3.95;;
76157;SDS011;64907;51.574;6.502;2022-12-20T08:09:13;7.05;;;3.45;;
76157;SDS011;64907;51.574;6.502;2022-12-20T08:11:39;6.85;;;4.03;;
76157;SDS011;64907;51.574;6.502;2022-12-20T08:14:06;4.15;;;3.35;;
76157;SDS011;64907;51.574;6.502;2022-12-20T08:16:32;3.85;;;3.42;;
76157;SDS011;64907;51.574;6.502;2022-12-20T08:19:00;7.43;;;3.72;;
76157;SDS011;64907;51.574;6.502;2022-12-20T08:21:26;4.65;;;3.17;;
76157;SDS011;64907;51.574;6.502;2022-12-20T08:23:51;4.03;;;3.73;;
76157;SDS011;64907;51.574;6.502;2022-12-20T08:26:16;3.50;;;3.15;;
76157;SDS011;64907;51.574;6.502;2022-12-20T08:28:41;3.58;;;3.28;;
76157;SDS011;64907;51.574;6.502;2022-12-20T08:31:08;3.95;;;3.20;;
76157;SDS011;64907;51.574;6.502;2022-12-20T08:33:34;3.47;;;3.20;;
76157;SDS011;64907;51.574;6.502;2022-12-20T08:36:00;6.50;;;3.10;;
76157;SDS011;64907;51.574;6.502;2022-12-20T08:38:26;9.80;;;3.45;;
76157;SDS011;64907;51.574;6.502;2022-12-20T08:41:00;3.47;;;3.15;;
76157;SDS011;64907;51.574;6.502;2022-12-20T08:43:25;5.10;;;3.45;;
76157;SDS011;64907;51.574;6.502;2022-12-20T08:45:51;2.60;;;2.40;;
76157;SDS011;64907;51.574;6.502;2022-12-20T08:48:17;3.25;;;3.03;;
76157;SDS011;64907;51.574;6.502;2022-12-20T08:50:42;4.30;;;3.27;;
76157;SDS011;64907;51.574;6.502;2022-12-20T08:53:07;8.13;;;3.17;;
76157;SDS011;64907;51.574;6.502;2022-12-20T08:55:32;5.40;;;3.23;;
76157;SDS011;64907;51.574;6.502;2022-12-20T08:57:57;3.42;;;3.13;;
76157;SDS011;64907;51.574;6.502;2022-12-20T09:00:23;5.17;;;3.00;;
76157;SDS011;64907;51.574;6.502;2022-12-20T09:02:48;3.38;;;2.90;;
76157;SDS011;64907;51.574;6.502;2022-12-20T09:05:15;3.35;;;2.90;;
76157;SDS011;64907;51.574;6.502;2022-12-20T09:07:40;5.13;;;3.50;;
76157;SDS011;64907;51.574;6.502;2022-12-20T09:10:06;3.10;;;2.90;;
76157;SDS011;64907;51.574;6.502;2022-12-20T09:12:35;4.32;;;3.10;;
76157;SDS011;64907;51.574;6.502;2022-12-20T09:15:00;6.25;;;2.88;;
76157;SDS011;64907;51.574;6.502;2022-12-20T09:17:26;3.08;;;2.88;;
76157;SDS011;64907;51.574;6.502;2022-12-20T09:19:51;3.67;;;2.70;;
76157;SDS011;64907;51.574;6.502;2022-12-20T09:22:16;3.17;;;2.78;;
76157;SDS011;64907;51.574;6.502;2022-12-20T09:24:42;5.20;;;3.47;;
76157;SDS011;64907;51.574;6.502;2022-12-20T09:27:08;2.93;;;2.33;;
76157;SDS011;64907;51.574;6.502;2022-12-20T09:29:33;2.88;;;2.63;;
76157;SDS011;64907;51.574;6.502;2022-12-20T09:31:58;3.50;;;2.67;;
76157;SDS011;64907;51.574;6.502;2022-12-20T09:34:23;3.97;;;2.37;;
76157;SDS011;64907;51.574;6.502;2022-12-20T09:36:49;7.25;;;3.35;;
76157;SDS011;64907;51.574;6.502;2022-12-20T09:39:14;5.88;;;2.67;;
76157;SDS011;64907;51.574;6.502;2022-12-20T09:41:40;3.10;;;2.90;;
76157;SDS011;64907;51.574;6.502;2022-12-20T09:44:11;3.15;;;2.90;;
76157;SDS011;64907;51.574;6.502;2022-12-20T09:46:38;3.08;;;2.78;;
76157;SDS011;64907;51.574;6.502;2022-12-20T09:49:04;3.05;;;2.80;;
76157;SDS011;64907;51.574;6.502;2022-12-20T09:57:08;3.42;;;3.13;;
76157;SDS011;64907;51.574;6.502;2022-12-20T09:59:36;4.53;;;3.08;;
76157;SDS011;64907;51.574;6.502;2022-12-20T10:02:06;3.28;;;2.95;;
76157;SDS011;64907;51.574;6.502;2022-12-20T10:04:32;4.43;;;3.10;;
76157;SDS011;64907;51.574;6.502;2022-12-20T10:07:14;4.15;;;3.10;;
76157;SDS011;64907;51.574;6.502;2022-12-20T10:09:59;3.88;;;3.50;;
76157;SDS011;64907;51.574;6.502;2022-12-20T10:17:44;3.65;;;3.38;;
76157;SDS011;64907;51.574;6.502;2022-12-20T10:20:26;3.75;;;3.30;;
76157;SDS011;64907;51.574;6.502;2022-12-20T10:25:35;3.47;;;3.20;;
76157;SDS011;64907;51.574;6.502;2022-12-20T10:28:00;3.33;;;3.10;;
76157;SDS011;64907;51.574;6.502;2022-12-20T10:30:27;3.80;;;3.50;;
76157;SDS011;64907;51.574;6.502;2022-12-20T10:32:53;4.85;;;3.15;;
76157;SDS011;64907;51.574;6.502;2022-12-20T10:38:06;3.38;;;3.08;;
76157;SDS011;64907;51.574;6.502;2022-12-20T10:40:34;4.50;;;3.20;;
76157;SDS011;64907;51.574;6.502;2022-12-20T10:43:00;3.10;;;2.83;;
76157;SDS011;64907;51.574;6.502;2022-12-20T10:45:33;3.30;;;3.00;;
76157;SDS011;64907;51.574;6.502;2022-12-20T10:47:59;4.70;;;3.17;;
76157;SDS011;64907;51.574;6.502;2022-12-20T10:50:25;4.72;;;3.00;;
76157;SDS011;64907;51.574;6.502;2022-12-20T10:55:49;4.53;;;2.63;;
76157;SDS011;64907;51.574;6.502;2022-12-20T10:58:16;6.32;;;3.30;;
76157;SDS011;64907;51.574;6.502;2022-12-20T11:00:45;3.92;;;2.80;;
76157;SDS011;64907;51.574;6.502;2022-12-20T11:03:16;3.00;;;2.67;;
76157;SDS011;64907;51.574;6.502;2022-12-20T11:05:58;3.30;;;2.70;;
76157;SDS011;64907;51.574;6.502;2022-12-20T11:08:25;5.15;;;2.55;;
76157;SDS011;64907;51.574;6.502;2022-12-20T11:11:01;3.75;;;3.30;;
76157;SDS011;64907;51.574;6.502;2022-12-20T11:13:36;3.20;;;2.88;;
76157;SDS011;64907;51.574;6.502;2022-12-20T11:16:02;4.30;;;2.78;;
76157;SDS011;64907;51.574;6.502;2022-12-20T11:20:59;3.13;;;2.83;;
76157;SDS011;64907;51.574;6.502;2022-12-20T11:36:23;3.58;;;3.05;;
76157;SDS011;64907;51.574;6.502;2022-12-20T11:38:57;2.95;;;2.75;;
76157;SDS011;64907;51.574;6.502;2022-12-20T11:44:19;3.28;;;3.00;;
76157;SDS011;64907;51.574;6.502;2022-12-20T11:54:46;5.22;;;3.97;;
76157;SDS011;64907;51.574;6.502;2022-12-20T11:57:28;6.80;;;2.90;;
76157;SDS011;64907;51.574;6.502;2022-12-20T11:59:59;3.92;;;3.28;;
76157;SDS011;64907;51.574;6.502;2022-12-20T12:02:27;4.28;;;3.20;;
76157;SDS011;64907;51.574;6.502;2022-12-20T12:05:03;4.18;;;3.20;;
76157;SDS011;64907;51.574;6.502;2022-12-20T12:07:30;5.25;;;3.33;;
76157;SDS011;64907;51.574;6.502;2022-12-20T12:12:25;3.97;;;3.35;;
76157;SDS011;64907;51.574;6.502;2022-12-20T12:19:50;4.28;;;3.65;;
76157;SDS011;64907;51.574;6.502;2022-12-20T12:22:23;8.32;;;4.20;;
76157;SDS011;64907;51.574;6.502;2022-12-20T12:24:53;5.13;;;2.92;;
76157;SDS011;64907;51.574;6.502;2022-12-20T12:27:25;5.32;;;3.03;;
76157;SDS011;64907;51.574;6.502;2022-12-20T12:29:51;3.70;;;3.35;;
76157;SDS011;64907;51.574;6.502;2022-12-20T12:39:59;3.05;;;2.85;;
76157;SDS011;64907;51.574;6.502;2022-12-20T12:42:31;3.10;;;2.90;;
76157;SDS011;64907;51.574;6.502;2022-12-20T12:45:04;2.72;;;2.53;;
76157;SDS011;64907;51.574;6.502;2022-12-20T12:47:37;4.13;;;3.08;;
76157;SDS011;64907;51.574;6.502;2022-12-20T12:50:05;2.83;;;2.50;;
76157;SDS011;64907;51.574;6.502;2022-12-20T12:55:00;4.63;;;2.47;;
76157;SDS011;64907;51.574;6.502;2022-12-20T12:57:26;3.83;;;2.23;;
76157;SDS011;64907;51.574;6.502;2022-12-20T12:59:51;3.15;;;2.83;;
76157;SDS011;64907;51.574;6.502;2022-12-20T13:17:51;3.17;;;2.97;;
76157;SDS011;64907;51.574;6.502;2022-12-20T13:23:02;4.47;;;3.33;;
76157;SDS011;64907;51.574;6.502;2022-12-20T13:25:28;3.67;;;3.35;;
76157;SDS011;64907;51.574;6.502;2022-12-20T13:27:54;3.90;;;3.60;;
76157;SDS011;64907;51.574;6.502;2022-12-20T13:30:42;4.22;;;3.85;;
76157;SDS011;64907;51.574;6.502;2022-12-20T13:43:48;5.35;;;4.00;;
76157;SDS011;64907;51.574;6.502;2022-12-20T13:49:20;5.05;;;4.30;;
76157;SDS011;64907;51.574;6.502;2022-12-20T13:51:46;5.35;;;4.28;;
76157;SDS011;64907;51.574;6.502;2022-12-20T13:54:16;5.53;;;3.78;;
76157;SDS011;64907;51.574;6.502;2022-12-20T13:56:49;5.93;;;4.25;;
76157;SDS011;64907;51.574;6.502;2022-12-20T13:59:17;5.65;;;4.22;;
76157;SDS011;64907;51.574;6.502;2022-12-20T14:01:46;5.28;;;4.22;;
76157;SDS011;64907;51.574;6.502;2022-12-20T14:04:12;6.45;;;4.45;;
76157;SDS011;64907;51.574;6.502;2022-12-20T14:06:37;6.77;;;4.63;;
76157;SDS011;64907;51.574;6.502;2022-12-20T14:09:02;5.72;;;4.90;;
76157;SDS011;64907;51.574;6.502;2022-12-20T14:11:29;6.88;;;4.10;;
76157;SDS011;64907;51.574;6.502;2022-12-20T14:13:59;5.37;;;4.97;;
76157;SDS011;64907;51.574;6.502;2022-12-20T14:16:25;5.15;;;4.70;;
76157;SDS011;64907;51.574;6.502;2022-12-20T14:21:21;4.85;;;4.38;;
76157;SDS011;64907;51.574;6.502;2022-12-20T14:23:47;6.70;;;4.93;;
76157;SDS011;64907;51.574;6.502;2022-12-20T14:26:15;10.13;;;5.45;;
76157;SDS011;64907;51.574;6.502;2022-12-20T14:28:47;5.35;;;4.82;;
76157;SDS011;64907;51.574;6.502;2022-12-20T14:34:01;7.55;;;4.60;;
76157;SDS011;64907;51.574;6.502;2022-12-20T14:36:27;5.72;;;5.22;;
76157;SDS011;64907;51.574;6.502;2022-12-20T14:38:54;5.88;;;4.55;;
76157;SDS011;64907;51.574;6.502;2022-12-20T14:41:36;5.28;;;4.65;;
76157;SDS011;64907;51.574;6.502;2022-12-20T14:44:19;4.65;;;4.22;;
76157;SDS011;64907;51.574;6.502;2022-12-20T14:46:48;6.05;;;4.55;;
76157;SDS011;64907;51.574;6.502;2022-12-20T14:51:43;6.70;;;4.57;;
76157;SDS011;64907;51.574;6.502;2022-12-20T14:54:42;6.32;;;4.82;;
76157;SDS011;64907;51.574;6.502;2022-12-20T14:57:00;8.40;;;4.80;;
76157;SDS011;64907;51.574;6.502;2022-12-20T14:59:26;5.20;;;4.70;;
76157;SDS011;64907;51.574;6.502;2022-12-20T15:01:52;5.30;;;4.80;;
76157;SDS011;64907;51.574;6.502;2022-12-20T15:04:39;5.95;;;4.78;;
76157;SDS011;64907;51.574;6.502;2022-12-20T15:07:03;8.70;;;4.53;;
76157;SDS011;64907;51.574;6.502;2022-12-20T15:09:31;5.78;;;4.85;;
76157;SDS011;64907;51.574;6.502;2022-12-20T15:11:56;6.57;;;4.75;;
76157;SDS011;64907;51.574;6.502;2022-12-20T15:16:47;5.65;;;4.95;;
76157;SDS011;64907;51.574;6.502;2022-12-20T15:21:43;12.50;;;4.72;;
76157;SDS011;64907;51.574;6.502;2022-12-20T15:24:12;5.07;;;4.68;;
76157;SDS011;64907;51.574;6.502;2022-12-20T15:26:37;10.32;;;5.05;;
76157;SDS011;64907;51.574;6.502;2022-12-20T15:29:03;6.10;;;4.80;;
76157;SDS011;64907;51.574;6.502;2022-12-20T15:31:28;6.15;;;4.70;;
76157;SDS011;64907;51.574;6.502;2022-12-20T15:33:54;7.78;;;4.75;;
76157;SDS011;64907;51.574;6.502;2022-12-20T15:36:26;5.35;;;4.85;;
76157;SDS011;64907;51.574;6.502;2022-12-20T15:38:51;5.53;;;4.93;;
76157;SDS011;64907;51.574;6.502;2022-12-20T15:41:24;7.95;;;5.25;;
76157;SDS011;64907;51.574;6.502;2022-12-20T15:43:52;5.93;;;5.32;;
76157;SDS011;64907;51.574;6.502;2022-12-20T15:46:18;5.20;;;4.80;;
76157;SDS011;64907;51.574;6.502;2022-12-20T15:48:43;7.83;;;5.83;;
76157;SDS011;64907;51.574;6.502;2022-12-20T15:51:15;7.63;;;4.57;;
76157;SDS011;64907;51.574;6.502;2022-12-20T15:53:41;9.25;;;4.97;;
76157;SDS011;64907;51.574;6.502;2022-12-20T15:56:07;6.28;;;4.80;;
76157;SDS011;64907;51.574;6.502;2022-12-20T15:58:36;5.45;;;4.93;;
76157;SDS011;64907;51.574;6.502;2022-12-20T16:01:01;10.43;;;4.63;;
76157;SDS011;64907;51.574;6.502;2022-12-20T16:03:29;6.93;;;4.70;;
76157;SDS011;64907;51.574;6.502;2022-12-20T16:05:54;5.70;;;4.85;;
76157;SDS011;64907;51.574;6.502;2022-12-20T16:08:20;6.28;;;4.72;;
76157;SDS011;64907;51.574;6.502;2022-12-20T16:10:45;5.20;;;4.70;;
76157;SDS011;64907;51.574;6.502;2022-12-20T16:13:14;7.05;;;5.00;;
76157;SDS011;64907;51.574;6.502;2022-12-20T16:15:40;8.93;;;5.45;;
76157;SDS011;64907;51.574;6.502;2022-12-20T16:18:05;7.50;;;5.63;;
76157;SDS011;64907;51.574;6.502;2022-12-20T16:20:31;7.07;;;5.60;;
76157;SDS011;64907;51.574;6.502;2022-12-20T16:22:58;6.00;;;5.40;;
76157;SDS011;64907;51.574;6.502;2022-12-20T16:25:27;6.55;;;5.80;;
76157;SDS011;64907;51.574;6.502;2022-12-20T16:27:53;6.50;;;5.28;;
76157;SDS011;64907;51.574;6.502;2022-12-20T16:30:18;7.82;;;6.30;;
76157;SDS011;64907;51.574;6.502;2022-12-20T16:32:43;9.23;;;5.65;;
76157;SDS011;64907;51.574;6.502;2022-12-20T16:35:42;7.00;;;5.72;;
76157;SDS011;64907;51.574;6.502;2022-12-20T16:38:01;6.22;;;5.68;;
76157;SDS011;64907;51.574;6.502;2022-12-20T16:40:27;6.70;;;5.63;;
76157;SDS011;64907;51.574;6.502;2022-12-20T16:42:53;6.00;;;5.50;;
76157;SDS011;64907;51.574;6.502;2022-12-20T16:45:20;9.93;;;5.88;;
76157;SDS011;64907;51.574;6.502;2022-12-20T16:47:46;6.40;;;5.28;;
76157;SDS011;64907;51.574;6.502;2022-12-20T16:50:12;6.78;;;5.35;;
76157;SDS011;64907;51.574;6.502;2022-12-20T16:52:37;6.07;;;5.53;;